createdAt,value
2022-09-20T00:01:33.264Z,13.20
2022-09-20T00:04:05.081Z,13.20
2022-09-20T00:06:34.555Z,13.20
2022-09-20T00:09:02.645Z,13.10
2022-09-20T00:11:33.248Z,13.20
2022-09-20T00:14:03.112Z,13.10
2022-09-20T00:16:35.982Z,13.10
2022-09-20T00:19:04.753Z,13.10
2022-09-20T00:21:35.007Z,13.00
2022-09-20T00:24:02.293Z,13.00
2022-09-20T00:26:29.585Z,13.00
2022-09-20T00:28:58.648Z,13.00
2022-09-20T00:31:26.416Z,13.00
2022-09-20T00:34:15.983Z,13.00
2022-09-20T00:36:44.231Z,12.80
2022-09-20T00:39:13.838Z,12.90
2022-09-20T00:41:40.657Z,12.90
2022-09-20T00:44:44.077Z,12.90
2022-09-20T00:47:39.938Z,12.90
2022-09-20T00:50:33.149Z,12.90
2022-09-20T00:53:26.206Z,12.70
2022-09-20T00:56:06.900Z,12.80
2022-09-20T00:58:39.532Z,12.80
2022-09-20T01:01:06.938Z,12.80
2022-09-20T01:03:38.356Z,12.80
2022-09-20T01:06:11.530Z,12.80
2022-09-20T01:08:42.423Z,12.80
2022-09-20T01:11:09.176Z,12.80
2022-09-20T01:13:35.932Z,12.80
2022-09-20T01:16:05.692Z,12.80
2022-09-20T01:18:35.351Z,12.80
2022-09-20T01:21:04.181Z,12.70
2022-09-20T01:23:48.276Z,12.80
2022-09-20T01:26:58.163Z,12.70
2022-09-20T01:30:09.153Z,12.70
2022-09-20T01:32:58.034Z,12.70
2022-09-20T01:35:28.625Z,12.70
2022-09-20T01:38:23.540Z,12.70
2022-09-20T01:41:19.237Z,12.70
2022-09-20T01:44:01.029Z,12.70
2022-09-20T01:46:37.104Z,12.70
2022-09-20T01:49:45.238Z,12.70
2022-09-20T01:52:40.524Z,12.70
2022-09-20T01:55:52.380Z,12.70
2022-09-20T01:59:23.265Z,12.70
2022-09-20T02:01:54.242Z,12.60
2022-09-20T02:04:56.444Z,12.50
2022-09-20T02:07:49.523Z,12.60
2022-09-20T02:11:05.461Z,12.60
2022-09-20T02:13:45.093Z,12.60
2022-09-20T02:16:43.472Z,12.70
2022-09-20T02:19:40.976Z,12.60
2022-09-20T02:22:22.697Z,12.60
2022-09-20T02:25:23.096Z,12.60
2022-09-20T02:28:34.569Z,12.60
2022-09-20T02:31:35.215Z,12.60
2022-09-20T02:34:29.370Z,12.60
2022-09-20T02:37:55.140Z,12.50
2022-09-20T02:40:47.572Z,12.60
2022-09-20T02:43:53.840Z,12.60
2022-09-20T02:46:30.107Z,12.60
2022-09-20T02:49:34.661Z,12.60
2022-09-20T02:52:20.790Z,12.60
2022-09-20T02:55:17.085Z,12.60
2022-09-20T02:58:40.070Z,12.60
2022-09-20T03:01:24.794Z,12.70
2022-09-20T03:04:19.226Z,12.70
2022-09-20T03:07:17.525Z,12.70
2022-09-20T03:10:14.341Z,12.70
2022-09-20T03:13:18.856Z,12.70
2022-09-20T03:16:01.733Z,12.70
2022-09-20T03:18:43.661Z,12.70
2022-09-20T03:21:28.455Z,12.70
2022-09-20T03:24:39.358Z,12.70
2022-09-20T03:27:24.485Z,12.70
2022-09-20T03:30:24.232Z,12.70
2022-09-20T03:33:19.029Z,12.60
2022-09-20T03:36:25.507Z,12.60
2022-09-20T03:39:37.560Z,12.60
2022-09-20T03:42:25.957Z,12.60
2022-09-20T03:45:33.455Z,12.70
2022-09-20T03:48:17.294Z,12.70
2022-09-20T03:51:23.692Z,12.70
2022-09-20T03:54:43.882Z,12.70
2022-09-20T03:57:51.344Z,12.80
2022-09-20T04:00:57.469Z,12.80
2022-09-20T04:03:49.370Z,12.80
2022-09-20T04:06:45.815Z,12.80
2022-09-20T04:09:37.266Z,12.90
2022-09-20T04:12:54.343Z,12.90
2022-09-20T04:15:37.284Z,12.90
2022-09-20T04:18:16.911Z,13.00
2022-09-20T04:21:00.560Z,13.00
2022-09-20T04:23:50.745Z,13.00
2022-09-20T04:26:28.209Z,13.10
2022-09-20T04:29:26.734Z,13.20
2022-09-20T04:32:13.801Z,13.10
2022-09-20T04:35:12.309Z,13.10
2022-09-20T04:37:41.116Z,13.20
2022-09-20T04:40:24.658Z,13.20
2022-09-20T04:43:54.480Z,13.20
2022-09-20T04:47:19.101Z,13.20
2022-09-20T04:50:17.001Z,13.20
2022-09-20T04:53:15.637Z,13.20
2022-09-20T04:55:58.897Z,13.20
2022-09-20T04:59:05.981Z,13.20
2022-09-20T05:02:13.692Z,13.20
2022-09-20T05:05:33.640Z,13.20
2022-09-20T05:08:38.429Z,13.20
2022-09-20T05:11:31.555Z,13.20
2022-09-20T05:14:37.204Z,13.10
2022-09-20T05:17:54.258Z,13.10
2022-09-20T05:20:49.121Z,13.10
2022-09-20T05:23:52.302Z,13.20
2022-09-20T05:27:12.473Z,13.20
2022-09-20T05:29:50.961Z,13.20
2022-09-20T05:33:05.699Z,13.20
2022-09-20T05:36:00.395Z,13.20
2022-09-20T05:39:03.589Z,13.20
2022-09-20T05:41:45.556Z,13.30
2022-09-20T05:44:47.046Z,13.30
2022-09-20T05:47:34.842Z,13.40
2022-09-20T05:50:35.922Z,13.40
2022-09-20T05:54:07.113Z,13.40
2022-09-20T05:56:50.681Z,13.50
2022-09-20T05:59:42.174Z,13.60
2022-09-20T06:02:46.726Z,13.70
2022-09-20T06:05:39.743Z,13.80
2022-09-20T06:08:39.011Z,13.90
2022-09-20T06:11:46.904Z,13.90
2022-09-20T06:14:32.560Z,14.00
2022-09-20T06:17:36.733Z,14.00
2022-09-20T06:20:38.341Z,14.10
2022-09-20T06:23:06.185Z,14.10
2022-09-20T06:25:47.695Z,14.10
2022-09-20T06:28:21.186Z,14.10
2022-09-20T06:30:50.671Z,14.20
2022-09-20T06:33:26.905Z,14.20
2022-09-20T06:36:24.606Z,14.30
2022-09-20T06:39:37.721Z,14.30
2022-09-20T06:42:04.795Z,14.30
2022-09-20T06:44:31.500Z,14.40
2022-09-20T06:46:59.049Z,14.40
2022-09-20T06:49:27.304Z,14.50
2022-09-20T06:51:55.741Z,14.50
2022-09-20T06:54:23.234Z,14.60
2022-09-20T06:56:51.438Z,14.60
2022-09-20T06:59:18.141Z,14.60
2022-09-20T07:01:44.975Z,14.70
2022-09-20T07:04:11.718Z,14.80
2022-09-20T07:06:38.520Z,14.80
2022-09-20T07:09:06.249Z,14.90
2022-09-20T07:11:34.923Z,14.90
2022-09-20T07:14:02.050Z,14.90
2022-09-20T07:16:29.239Z,14.90
2022-09-20T07:18:56.746Z,14.90
2022-09-20T07:21:23.964Z,14.90
2022-09-20T07:23:51.295Z,14.70
2022-09-20T07:26:28.559Z,14.80
2022-09-20T07:28:57.442Z,14.80
2022-09-20T07:31:27.595Z,14.70
2022-09-20T07:33:54.721Z,14.70
2022-09-20T07:36:22.349Z,14.70
2022-09-20T07:38:51.681Z,14.70
2022-09-20T07:41:20.552Z,14.60
2022-09-20T07:43:47.341Z,14.70
2022-09-20T07:46:14.123Z,14.70
2022-09-20T07:48:41.672Z,14.70
2022-09-20T07:51:12.913Z,14.70
2022-09-20T07:53:40.786Z,14.70
2022-09-20T07:56:14.767Z,14.80
2022-09-20T07:58:43.206Z,14.80
2022-09-20T08:01:13.306Z,14.80
2022-09-20T08:03:40.729Z,14.80
2022-09-20T08:06:10.965Z,14.90
2022-09-20T08:08:43.446Z,14.90
2022-09-20T08:11:18.129Z,14.90
2022-09-20T08:14:07.099Z,14.90
2022-09-20T08:16:40.935Z,15.00
2022-09-20T08:19:08.981Z,14.90
2022-09-20T08:21:39.728Z,15.10
2022-09-20T08:24:06.694Z,15.10
2022-09-20T08:26:35.671Z,15.10
2022-09-20T08:29:05.239Z,15.10
2022-09-20T08:31:37.003Z,15.20
2022-09-20T08:34:07.022Z,15.30
2022-09-20T08:36:38.281Z,15.40
2022-09-20T08:42:14.665Z,15.40
2022-09-20T08:45:01.429Z,15.50
2022-09-20T08:47:35.647Z,15.50
2022-09-20T08:50:09.808Z,15.60
2022-09-20T08:52:40.115Z,15.70
2022-09-20T08:55:21.485Z,15.70
2022-09-20T08:57:55.145Z,15.60
2022-09-20T09:00:30.432Z,15.70
2022-09-20T09:03:04.332Z,15.80
2022-09-20T09:05:37.409Z,15.80
2022-09-20T09:08:16.686Z,15.80
2022-09-20T09:10:54.109Z,15.90
2022-09-20T09:13:40.014Z,15.90
2022-09-20T09:16:22.615Z,16.00
2022-09-20T09:18:51.786Z,16.00
2022-09-20T09:21:26.292Z,16.00
2022-09-20T09:24:06.431Z,16.10
2022-09-20T09:26:43.504Z,16.10
2022-09-20T09:29:23.801Z,16.20
2022-09-20T09:31:56.473Z,16.20
2022-09-20T09:34:38.603Z,16.30
2022-09-20T09:37:05.325Z,16.30
2022-09-20T09:39:40.523Z,16.40
2022-09-20T09:42:28.825Z,16.50
2022-09-20T09:45:12.549Z,16.60
2022-09-20T09:47:39.315Z,16.70
2022-09-20T09:50:09.884Z,16.70
2022-09-20T09:52:37.011Z,16.80
2022-09-20T09:55:05.996Z,16.90
2022-09-20T09:58:03.694Z,17.00
2022-09-20T10:00:33.146Z,17.20
2022-09-20T10:03:38.908Z,17.20
2022-09-20T10:06:33.397Z,17.40
2022-09-20T10:09:09.739Z,17.50
2022-09-20T10:12:09.212Z,17.60
2022-09-20T10:15:02.011Z,17.70
2022-09-20T10:18:11.656Z,17.80
2022-09-20T10:20:53.478Z,17.90
2022-09-20T10:24:03.339Z,18.10
2022-09-20T10:27:02.175Z,18.50
2022-09-20T10:29:53.045Z,18.40
2022-09-20T10:33:00.051Z,18.50
2022-09-20T10:35:58.535Z,18.60
2022-09-20T10:38:41.402Z,18.60
2022-09-20T10:41:56.644Z,18.70
2022-09-20T10:44:46.456Z,18.80
2022-09-20T10:47:21.491Z,18.90
2022-09-20T10:50:43.700Z,18.90
2022-09-20T10:53:40.082Z,18.90
2022-09-20T10:56:21.390Z,18.80
2022-09-20T10:59:32.565Z,18.70
2022-09-20T11:02:41.566Z,18.60
2022-09-20T11:05:18.417Z,18.50
2022-09-20T11:08:33.934Z,18.40
2022-09-20T11:11:25.538Z,18.30
2022-09-20T11:14:14.886Z,18.10
2022-09-20T11:17:26.252Z,18.10
2022-09-20T11:20:16.954Z,18.00
2022-09-20T11:22:52.532Z,17.80
2022-09-20T11:25:39.063Z,17.50
2022-09-20T11:28:20.470Z,17.20
2022-09-20T11:31:32.170Z,16.80
2022-09-20T11:34:28.896Z,16.60
2022-09-20T11:37:00.860Z,16.30
2022-09-20T11:39:44.385Z,16.00
2022-09-20T11:42:27.880Z,16.00
2022-09-20T11:44:55.543Z,15.80
2022-09-20T11:47:54.386Z,15.70
2022-09-20T11:50:53.260Z,15.60
2022-09-20T11:54:18.959Z,15.60
2022-09-20T11:56:58.044Z,15.50
2022-09-20T11:59:40.586Z,15.50
2022-09-20T12:02:24.330Z,15.50
2022-09-20T12:04:53.531Z,15.50
2022-09-20T12:07:29.902Z,15.50
2022-09-20T12:10:01.600Z,15.50
2022-09-20T12:12:44.065Z,15.50
2022-09-20T12:15:40.323Z,15.60
2022-09-20T12:18:35.689Z,15.60
2022-09-20T12:21:06.295Z,15.70
2022-09-20T12:23:42.497Z,15.70
2022-09-20T12:26:22.350Z,15.80
2022-09-20T12:28:53.178Z,15.90
2022-09-20T12:31:25.885Z,15.90
2022-09-20T12:34:02.564Z,16.00
2022-09-20T12:36:42.495Z,16.10
2022-09-20T12:39:12.177Z,16.10
2022-09-20T12:42:09.602Z,16.20
2022-09-20T12:44:51.796Z,16.30
2022-09-20T12:47:33.230Z,16.30
2022-09-20T12:50:22.136Z,16.40
2022-09-20T12:52:57.355Z,16.40
2022-09-20T12:55:27.211Z,16.50
2022-09-20T12:58:14.418Z,16.60
2022-09-20T13:00:57.732Z,16.50
2022-09-20T13:03:42.766Z,16.40
2022-09-20T13:06:12.590Z,16.60
2022-09-20T13:09:08.526Z,16.60
2022-09-20T13:11:49.066Z,16.70
2022-09-20T13:14:26.353Z,16.70
2022-09-20T13:17:27.982Z,16.80
2022-09-20T13:19:56.427Z,16.80
2022-09-20T13:22:43.548Z,16.90
2022-09-20T13:25:16.746Z,16.80
2022-09-20T13:28:20.447Z,16.80
2022-09-20T13:30:47.999Z,16.20
2022-09-20T13:33:22.038Z,16.80
2022-09-20T13:35:54.611Z,16.80
2022-09-20T13:38:31.783Z,16.80
2022-09-20T13:41:12.687Z,16.90
2022-09-20T13:43:46.658Z,16.90
2022-09-20T13:46:32.956Z,17.00
2022-09-20T13:49:24.521Z,17.10
2022-09-20T13:51:52.091Z,17.20
2022-09-20T13:54:29.747Z,17.20
2022-09-20T13:57:06.719Z,17.30
2022-09-20T13:59:42.141Z,17.30
2022-09-20T14:02:27.824Z,17.40
2022-09-20T14:04:57.821Z,17.40
2022-09-20T14:07:26.826Z,17.40
2022-09-20T14:09:54.857Z,17.50
2022-09-20T14:12:24.785Z,17.50
2022-09-20T14:14:52.722Z,17.60
2022-09-20T14:17:24.563Z,17.60
2022-09-20T14:19:54.810Z,17.70
2022-09-20T14:22:28.336Z,17.70
2022-09-20T14:25:27.729Z,17.80
2022-09-20T14:28:18.530Z,18.00
2022-09-20T14:30:48.017Z,18.00
2022-09-20T14:33:20.992Z,18.10
2022-09-20T14:35:52.142Z,18.10
2022-09-20T14:38:25.146Z,18.00
2022-09-20T14:40:52.854Z,18.10
2022-09-20T14:43:34.541Z,18.00
2022-09-20T14:46:05.532Z,18.10
2022-09-20T14:48:41.285Z,18.10
2022-09-20T14:51:21.992Z,18.10
2022-09-20T14:54:25.530Z,18.10
2022-09-20T14:56:57.575Z,18.10
2022-09-20T14:59:36.388Z,18.00
2022-09-20T15:02:08.806Z,18.00
2022-09-20T15:04:38.095Z,17.90
2022-09-20T15:07:08.420Z,17.90
2022-09-20T15:09:35.301Z,17.90
2022-09-20T15:12:20.354Z,17.80
2022-09-20T15:14:48.518Z,17.80
2022-09-20T15:17:21.400Z,17.70
2022-09-20T15:19:49.484Z,17.70
2022-09-20T15:22:16.666Z,17.70
2022-09-20T15:24:44.144Z,17.60
2022-09-20T15:27:14.458Z,17.60
2022-09-20T15:29:41.331Z,17.60
2022-09-20T15:32:11.026Z,17.50
2022-09-20T15:34:38.148Z,17.50
2022-09-20T15:37:04.879Z,17.50
2022-09-20T15:39:32.167Z,17.50
2022-09-20T15:41:58.891Z,17.30
2022-09-20T15:44:25.627Z,17.20
2022-09-20T15:46:53.326Z,17.10
2022-09-20T15:49:20.778Z,17.00
2022-09-20T15:51:48.257Z,16.90
2022-09-20T15:54:15.379Z,16.80
2022-09-20T15:56:42.923Z,16.60
2022-09-20T15:59:12.269Z,16.50
2022-09-20T16:01:42.937Z,16.30
2022-09-20T16:04:15.955Z,16.10
2022-09-20T16:06:44.777Z,16.00
2022-09-20T16:09:12.199Z,15.90
2022-09-20T16:11:39.993Z,15.80
2022-09-20T16:14:07.602Z,15.80
2022-09-20T16:16:40.012Z,15.70
2022-09-20T16:19:22.272Z,15.60
2022-09-20T16:21:58.130Z,15.60
2022-09-20T16:24:28.737Z,15.50
2022-09-20T16:26:56.987Z,15.50
2022-09-20T16:29:25.651Z,15.50
2022-09-20T16:31:54.507Z,15.50
2022-09-20T16:34:31.451Z,15.40
2022-09-20T16:37:16.730Z,15.50
2022-09-20T16:39:44.239Z,15.50
2022-09-20T16:42:13.454Z,15.40
2022-09-20T16:44:45.814Z,15.50
2022-09-20T16:47:20.396Z,15.50
2022-09-20T16:49:47.851Z,15.40
2022-09-20T16:52:14.944Z,15.40
2022-09-20T16:54:41.899Z,15.40
2022-09-20T16:57:09.822Z,15.30
2022-09-20T16:59:36.626Z,15.30
2022-09-20T17:02:03.402Z,15.30
2022-09-20T17:04:30.246Z,15.30
2022-09-20T17:06:57.253Z,15.30
2022-09-20T17:09:24.050Z,15.20
2022-09-20T17:11:51.336Z,15.20
2022-09-20T17:14:20.626Z,15.20
2022-09-20T17:16:49.383Z,15.20
2022-09-20T17:19:20.992Z,15.20
2022-09-20T17:21:50.647Z,15.10
2022-09-20T17:24:20.258Z,15.10
2022-09-20T17:26:48.168Z,15.10
2022-09-20T17:29:17.664Z,15.10
2022-09-20T17:31:55.068Z,15.10
2022-09-20T17:34:23.392Z,15.00
2022-09-20T17:36:50.783Z,15.00
2022-09-20T17:39:18.140Z,15.00
2022-09-20T17:41:50.698Z,14.90
2022-09-20T17:44:19.076Z,15.00
2022-09-20T17:46:49.921Z,15.00
2022-09-20T17:49:21.745Z,15.00
2022-09-20T17:51:55.317Z,14.90
2022-09-20T17:54:24.353Z,14.90
2022-09-20T17:56:55.599Z,15.00
2022-09-20T17:59:22.500Z,14.80
2022-09-20T18:01:51.768Z,14.90
2022-09-20T18:04:20.752Z,14.90
2022-09-20T18:06:50.838Z,14.80
2022-09-20T18:09:24.738Z,14.80
2022-09-20T18:11:53.780Z,14.80
2022-09-20T18:14:31.372Z,14.80
2022-09-20T18:17:01.483Z,14.80
2022-09-20T18:19:35.888Z,14.70
2022-09-20T18:22:04.080Z,14.70
2022-09-20T18:24:31.887Z,14.70
2022-09-20T18:27:00.537Z,14.70
2022-09-20T18:29:28.623Z,14.60
2022-09-20T18:31:56.799Z,14.50
2022-09-20T18:34:30.376Z,14.60
2022-09-20T18:36:59.882Z,14.60
2022-09-20T18:39:31.005Z,14.60
2022-09-20T18:41:57.928Z,14.50
2022-09-20T18:44:26.073Z,14.50
2022-09-20T18:46:55.832Z,14.40
2022-09-20T18:49:22.841Z,14.50
2022-09-20T18:51:50.087Z,14.40
2022-09-20T18:54:19.902Z,14.30
2022-09-20T18:56:50.442Z,14.40
2022-09-20T18:59:27.191Z,14.40
2022-09-20T19:02:08.154Z,14.30
2022-09-20T19:05:19.237Z,14.30
2022-09-20T19:08:23.837Z,14.30
2022-09-20T19:11:07.910Z,14.20
2022-09-20T19:13:49.278Z,14.20
2022-09-20T19:16:25.207Z,14.20
2022-09-20T19:19:13.232Z,14.10
2022-09-20T19:22:08.130Z,14.10
2022-09-20T19:24:56.798Z,14.10
2022-09-20T19:27:25.496Z,14.10
2022-09-20T19:29:52.904Z,14.00
2022-09-20T19:32:24.214Z,14.00
2022-09-20T19:34:55.911Z,14.00
2022-09-20T19:37:50.755Z,14.00
2022-09-20T19:40:40.852Z,13.90
2022-09-20T19:43:53.002Z,13.90
2022-09-20T19:46:43.681Z,13.90
2022-09-20T19:49:39.245Z,13.90
2022-09-20T19:52:08.628Z,13.90
2022-09-20T19:54:36.532Z,13.80
2022-09-20T19:57:13.811Z,13.80
2022-09-20T19:59:41.133Z,13.60
2022-09-20T20:02:11.326Z,13.80
2022-09-20T20:04:38.745Z,13.80
2022-09-20T20:07:41.324Z,13.80
2022-09-20T20:10:40.531Z,13.70
2022-09-20T20:13:35.782Z,13.70
2022-09-20T20:16:16.529Z,13.70
2022-09-20T20:19:25.200Z,13.70
2022-09-20T20:22:20.221Z,13.70
2022-09-20T20:24:52.778Z,13.70
2022-09-20T20:27:21.237Z,13.70
2022-09-20T20:29:48.749Z,13.70
2022-09-20T20:32:16.792Z,13.60
2022-09-20T20:34:43.553Z,13.70
2022-09-20T20:37:10.265Z,13.70
2022-09-20T20:39:37.173Z,13.70
2022-09-20T20:42:06.208Z,13.70
2022-09-20T20:44:37.046Z,13.70
2022-09-20T20:47:06.469Z,13.70
2022-09-20T20:49:33.610Z,13.60
2022-09-20T20:52:04.548Z,13.60
2022-09-20T20:54:32.249Z,13.60
2022-09-20T20:56:59.463Z,13.60
2022-09-20T20:59:26.752Z,13.70
2022-09-20T21:01:53.972Z,13.50
2022-09-20T21:04:21.547Z,13.50
2022-09-20T21:06:48.519Z,13.40
2022-09-20T21:09:15.347Z,13.50
2022-09-20T21:11:44.197Z,13.50
2022-09-20T21:14:12.683Z,13.40
2022-09-20T21:16:43.283Z,13.40
2022-09-20T21:19:15.046Z,13.40
2022-09-20T21:21:44.435Z,13.30
2022-09-20T21:24:17.061Z,13.40
2022-09-20T21:26:44.757Z,13.40
2022-09-20T21:29:14.424Z,13.30
2022-09-20T21:31:44.272Z,13.30
2022-09-20T21:34:15.298Z,13.30
2022-09-20T21:36:44.695Z,13.30
2022-09-20T21:39:12.129Z,13.30
2022-09-20T21:41:40.016Z,13.30
2022-09-20T21:44:08.300Z,13.30
2022-09-20T21:46:39.941Z,13.20
2022-09-20T21:49:09.780Z,13.20
2022-09-20T21:51:38.051Z,13.20
2022-09-20T21:54:05.430Z,13.20
2022-09-20T21:56:35.835Z,13.20
2022-09-20T21:59:04.317Z,13.10
2022-09-20T22:01:35.289Z,13.20
2022-09-20T22:04:11.109Z,13.20
2022-09-20T22:06:44.581Z,13.20
2022-09-20T22:09:17.446Z,13.20
2022-09-20T22:11:48.922Z,13.20
2022-09-20T22:14:19.138Z,13.20
2022-09-20T22:16:48.057Z,13.20
2022-09-20T22:19:17.563Z,13.20
2022-09-20T22:21:48.118Z,13.20
2022-09-20T22:24:16.690Z,13.20
2022-09-20T22:26:51.227Z,13.20
2022-09-20T22:29:18.683Z,13.20
2022-09-20T22:31:48.870Z,13.10
2022-09-20T22:34:22.059Z,13.10
2022-09-20T22:36:49.534Z,13.00
2022-09-20T22:39:17.018Z,13.10
2022-09-20T22:41:44.664Z,13.00
2022-09-20T22:44:12.037Z,13.10
2022-09-20T22:46:39.449Z,13.10
2022-09-20T22:49:08.262Z,13.10
2022-09-20T22:51:35.939Z,13.10
2022-09-20T22:54:09.754Z,13.10
2022-09-20T22:56:37.200Z,13.10
2022-09-20T22:59:14.191Z,13.10
2022-09-20T23:01:46.333Z,13.00
2022-09-20T23:04:18.857Z,13.00
2022-09-20T23:06:56.409Z,12.80
2022-09-20T23:09:26.767Z,12.90
2022-09-20T23:11:53.507Z,12.90
2022-09-20T23:14:21.996Z,12.90
2022-09-20T23:16:49.376Z,12.90
2022-09-20T23:19:16.980Z,12.80
2022-09-20T23:21:44.499Z,12.80
2022-09-20T23:24:14.374Z,12.80
2022-09-20T23:26:43.167Z,12.80
2022-09-20T23:29:16.677Z,12.80
2022-09-20T23:31:46.745Z,12.80
2022-09-20T23:34:15.915Z,12.80
2022-09-20T23:36:43.272Z,12.80
2022-09-20T23:39:11.736Z,12.70
2022-09-20T23:41:39.470Z,12.70
2022-09-20T23:44:07.422Z,12.70
2022-09-20T23:46:34.795Z,12.70
2022-09-20T23:49:02.364Z,12.70
2022-09-20T23:51:30.644Z,12.70
2022-09-20T23:53:57.593Z,12.60
2022-09-20T23:56:24.881Z,12.60
2022-09-20T23:58:51.646Z,12.70
